createdAt,value
2023-01-23T00:00:12.087Z,10.95
2023-01-23T00:02:40.155Z,13.13
2023-01-23T00:05:10.597Z,11.00
2023-01-23T00:07:38.682Z,13.02
2023-01-23T00:10:08.396Z,10.55
2023-01-23T00:12:36.571Z,11.82
2023-01-23T00:15:06.728Z,10.75
2023-01-23T00:17:34.768Z,10.73
2023-01-23T00:20:02.824Z,11.18
2023-01-23T00:22:32.153Z,11.48
2023-01-23T00:25:00.105Z,10.63
2023-01-23T00:27:28.197Z,10.68
2023-01-23T00:29:56.257Z,11.38
2023-01-23T00:32:24.421Z,10.73
2023-01-23T00:34:52.558Z,11.02
2023-01-23T00:37:20.787Z,10.00
2023-01-23T00:39:52.392Z,9.98
2023-01-23T00:42:20.450Z,10.13
2023-01-23T00:44:51.888Z,9.90
2023-01-23T00:47:20.033Z,10.70
2023-01-23T00:49:54.116Z,9.25
2023-01-23T00:52:25.238Z,9.75
2023-01-23T00:54:56.269Z,10.63
2023-01-23T00:57:24.319Z,11.38
2023-01-23T00:59:52.519Z,11.45
2023-01-23T01:02:20.856Z,9.82
2023-01-23T01:04:49.072Z,10.13
2023-01-23T01:07:17.231Z,10.50
2023-01-23T01:09:45.274Z,9.93
2023-01-23T01:12:15.121Z,9.88
2023-01-23T01:14:43.211Z,10.43
2023-01-23T01:17:11.395Z,11.70
2023-01-23T01:19:39.575Z,12.10
2023-01-23T01:22:07.830Z,11.05
2023-01-23T01:24:36.037Z,12.95
2023-01-23T01:27:04.355Z,10.75
2023-01-23T01:29:34.378Z,11.77
2023-01-23T01:32:02.439Z,11.52
2023-01-23T01:34:30.983Z,11.18
2023-01-23T01:36:59.043Z,11.82
2023-01-23T01:39:27.460Z,11.25
2023-01-23T01:41:55.585Z,11.85
2023-01-23T01:44:25.525Z,12.88
2023-01-23T01:46:55.158Z,12.65
2023-01-23T01:49:27.513Z,11.90
2023-01-23T01:52:00.731Z,10.15
2023-01-23T01:54:33.518Z,12.02
2023-01-23T01:57:05.750Z,12.43
2023-01-23T01:59:38.010Z,12.00
2023-01-23T02:02:12.507Z,11.43
2023-01-23T02:04:46.263Z,11.30
2023-01-23T02:07:20.437Z,10.27
2023-01-23T02:09:49.835Z,11.77
2023-01-23T02:12:18.268Z,12.70
2023-01-23T02:14:46.740Z,11.75
2023-01-23T02:17:16.222Z,11.98
2023-01-23T02:19:52.139Z,12.68
2023-01-23T02:22:32.168Z,11.43
2023-01-23T02:25:09.133Z,10.95
2023-01-23T02:27:38.801Z,12.40
2023-01-23T02:30:08.647Z,12.63
2023-01-23T02:33:10.908Z,10.75
2023-01-23T02:35:39.176Z,11.52
2023-01-23T02:38:11.214Z,10.10
2023-01-23T02:40:42.103Z,9.98
2023-01-23T02:43:19.117Z,12.05
2023-01-23T02:45:54.766Z,10.85
2023-01-23T02:48:49.808Z,11.63
2023-01-23T02:51:20.881Z,11.80
2023-01-23T02:53:49.954Z,10.07
2023-01-23T02:56:20.038Z,9.50
2023-01-23T02:59:06.823Z,9.13
2023-01-23T03:01:35.996Z,10.95
2023-01-23T03:04:06.331Z,9.70
2023-01-23T03:06:37.888Z,11.20
2023-01-23T03:09:10.078Z,10.95
2023-01-23T03:11:40.272Z,10.90
2023-01-23T03:14:17.773Z,9.50
2023-01-23T03:16:50.311Z,9.70
2023-01-23T03:19:21.496Z,11.80
2023-01-23T03:21:51.032Z,9.95
2023-01-23T03:24:20.181Z,10.38
2023-01-23T03:26:50.386Z,10.95
2023-01-23T03:29:41.840Z,11.00
2023-01-23T03:32:11.959Z,11.55
2023-01-23T03:34:41.671Z,11.20
2023-01-23T03:37:11.668Z,12.48
2023-01-23T03:39:58.286Z,8.75
2023-01-23T03:42:27.358Z,10.80
2023-01-23T03:44:59.217Z,10.82
2023-01-23T03:47:31.338Z,11.13
2023-01-23T03:49:59.463Z,11.98
2023-01-23T03:52:28.411Z,10.68
2023-01-23T03:54:58.488Z,9.80
2023-01-23T03:57:27.256Z,9.90
2023-01-23T04:00:13.742Z,10.00
2023-01-23T04:02:42.201Z,11.35
2023-01-23T04:05:13.640Z,10.73
2023-01-23T04:07:41.690Z,9.23
2023-01-23T04:10:13.152Z,10.07
2023-01-23T04:13:05.749Z,9.60
2023-01-23T04:15:35.760Z,10.93
2023-01-23T04:18:07.269Z,10.05
2023-01-23T04:20:36.707Z,11.50
2023-01-23T04:23:04.918Z,10.38
2023-01-23T04:26:11.278Z,10.60
2023-01-23T04:28:39.483Z,9.80
2023-01-23T04:31:09.542Z,12.15
2023-01-23T04:33:38.014Z,10.60
2023-01-23T04:36:07.900Z,10.70
2023-01-23T04:38:36.223Z,11.90
2023-01-23T04:41:21.489Z,9.90
2023-01-23T04:43:51.676Z,10.15
2023-01-23T04:46:21.478Z,9.20
2023-01-23T04:49:00.597Z,9.90
2023-01-23T04:51:29.430Z,11.95
2023-01-23T04:53:57.575Z,12.75
2023-01-23T04:56:25.759Z,10.50
2023-01-23T04:58:54.385Z,10.23
2023-01-23T05:01:25.487Z,10.80
2023-01-23T05:03:59.125Z,12.70
2023-01-23T05:06:27.298Z,9.70
2023-01-23T05:08:57.626Z,11.65
2023-01-23T05:11:31.415Z,10.30
2023-01-23T05:13:59.937Z,11.23
2023-01-23T05:16:32.423Z,12.18
2023-01-23T05:19:20.568Z,12.20
2023-01-23T05:21:48.804Z,10.55
2023-01-23T05:24:19.711Z,11.27
2023-01-23T05:26:47.844Z,11.10
2023-01-23T05:29:16.121Z,11.10
2023-01-23T05:32:00.150Z,10.27
2023-01-23T05:34:40.077Z,11.88
2023-01-23T05:37:25.580Z,11.25
2023-01-23T05:40:00.725Z,11.40
2023-01-23T05:42:49.036Z,11.32
2023-01-23T05:45:35.402Z,12.65
2023-01-23T05:48:08.800Z,10.48
2023-01-23T05:50:39.025Z,11.88
2023-01-23T05:53:07.094Z,12.63
2023-01-23T05:55:39.031Z,14.18
2023-01-23T05:58:08.452Z,12.52
2023-01-23T06:00:56.300Z,13.55
2023-01-23T06:04:08.701Z,11.65
2023-01-23T06:06:47.471Z,13.15
2023-01-23T06:09:15.556Z,13.02
2023-01-23T06:11:43.529Z,12.18
2023-01-23T06:14:12.134Z,12.85
2023-01-23T06:16:40.054Z,12.57
2023-01-23T06:19:11.299Z,13.32
2023-01-23T06:21:39.357Z,13.30
2023-01-23T06:24:07.935Z,12.77
2023-01-23T06:26:35.973Z,12.13
2023-01-23T06:29:04.315Z,13.32
2023-01-23T06:31:33.102Z,12.77
2023-01-23T06:34:03.313Z,11.75
2023-01-23T06:36:38.852Z,14.05
2023-01-23T06:39:07.020Z,14.73
2023-01-23T06:41:40.895Z,14.52
2023-01-23T06:44:14.176Z,12.25
2023-01-23T06:46:42.319Z,15.05
2023-01-23T06:49:36.723Z,13.18
2023-01-23T06:52:06.589Z,12.93
2023-01-23T06:54:35.086Z,13.30
2023-01-23T06:57:04.769Z,13.75
2023-01-23T06:59:33.434Z,13.60
2023-01-23T07:02:03.706Z,13.85
2023-01-23T07:04:40.577Z,13.48
2023-01-23T07:07:09.981Z,12.75
2023-01-23T07:09:38.172Z,13.15
2023-01-23T07:12:11.303Z,12.60
2023-01-23T07:14:40.319Z,14.48
2023-01-23T07:17:10.328Z,13.98
2023-01-23T07:19:38.384Z,13.70
2023-01-23T07:22:11.699Z,13.45
2023-01-23T07:24:40.062Z,13.48
2023-01-23T07:27:08.254Z,14.18
2023-01-23T07:29:36.296Z,13.68
2023-01-23T07:32:04.615Z,13.43
2023-01-23T07:34:32.744Z,13.82
2023-01-23T07:37:01.117Z,13.80
2023-01-23T07:39:30.348Z,13.45
2023-01-23T07:41:58.473Z,13.65
2023-01-23T07:44:29.701Z,13.90
2023-01-23T07:46:58.123Z,13.55
2023-01-23T07:49:26.241Z,12.27
2023-01-23T07:51:54.527Z,12.55
2023-01-23T07:54:22.512Z,13.73
2023-01-23T07:56:52.442Z,13.00
2023-01-23T07:59:20.447Z,13.30
2023-01-23T08:01:48.936Z,15.25
2023-01-23T08:04:16.910Z,14.82
2023-01-23T08:06:44.960Z,14.13
2023-01-23T08:09:13.794Z,13.02
2023-01-23T08:11:41.954Z,14.05
2023-01-23T08:14:12.660Z,12.40
2023-01-23T08:16:40.765Z,14.40
2023-01-23T08:19:09.258Z,11.95
2023-01-23T08:21:37.461Z,13.43
2023-01-23T08:24:06.222Z,13.57
2023-01-23T08:26:34.531Z,12.90
2023-01-23T08:29:02.693Z,15.10
2023-01-23T08:31:32.124Z,13.38
2023-01-23T08:34:00.469Z,14.13
2023-01-23T08:36:28.497Z,13.45
2023-01-23T08:38:57.037Z,14.43
2023-01-23T08:41:25.432Z,14.55
2023-01-23T08:43:53.557Z,16.33
2023-01-23T08:46:21.708Z,12.98
2023-01-23T08:48:51.345Z,14.23
2023-01-23T08:51:19.773Z,17.45
2023-01-23T08:53:47.874Z,13.15
2023-01-23T08:56:24.419Z,14.82
2023-01-23T08:58:53.415Z,13.00
2023-01-23T09:01:23.413Z,13.48
2023-01-23T09:03:53.217Z,15.75
2023-01-23T09:06:22.818Z,13.73
2023-01-23T09:08:51.324Z,14.05
2023-01-23T09:11:20.513Z,14.90
2023-01-23T09:13:48.702Z,13.95
2023-01-23T09:16:17.786Z,16.13
2023-01-23T09:18:45.896Z,15.15
2023-01-23T09:21:17.094Z,12.98
2023-01-23T09:23:45.632Z,12.55
2023-01-23T09:26:15.083Z,14.32
2023-01-23T09:28:43.647Z,13.23
2023-01-23T09:31:13.504Z,14.88
2023-01-23T09:33:42.258Z,12.13
2023-01-23T09:36:11.031Z,13.02
2023-01-23T09:38:40.536Z,13.68
2023-01-23T09:41:11.884Z,14.45
2023-01-23T09:43:46.460Z,12.88
2023-01-23T09:46:21.265Z,13.93
2023-01-23T09:48:54.009Z,11.18
2023-01-23T09:51:45.684Z,13.00
2023-01-23T09:54:30.962Z,13.27
2023-01-23T09:57:02.315Z,12.63
2023-01-23T09:59:47.127Z,10.90
2023-01-23T10:02:26.655Z,9.32
2023-01-23T10:04:56.289Z,10.20
2023-01-23T10:07:42.648Z,10.32
2023-01-23T10:10:44.323Z,10.68
2023-01-23T10:13:17.464Z,9.32
2023-01-23T10:16:13.669Z,9.18
2023-01-23T10:18:48.916Z,10.60
2023-01-23T10:21:26.439Z,9.65
2023-01-23T10:24:28.808Z,10.60
2023-01-23T10:27:04.727Z,11.45
2023-01-23T10:29:38.107Z,12.82
2023-01-23T10:32:22.586Z,12.82
2023-01-23T10:34:57.136Z,13.65
2023-01-23T10:37:41.790Z,12.70
2023-01-23T10:40:15.486Z,12.98
2023-01-23T10:42:45.221Z,14.75
2023-01-23T10:45:39.480Z,12.30
2023-01-23T10:48:28.685Z,13.65
2023-01-23T10:50:56.966Z,12.73
2023-01-23T10:53:25.874Z,13.88
2023-01-23T10:55:56.838Z,12.05
2023-01-23T10:58:33.773Z,12.25
2023-01-23T11:01:02.258Z,12.77
2023-01-23T11:03:33.696Z,12.20
2023-01-23T11:06:05.115Z,12.73
2023-01-23T11:08:36.233Z,12.20
2023-01-23T11:11:22.599Z,10.60
2023-01-23T11:14:07.161Z,12.55
2023-01-23T11:16:35.742Z,11.32
2023-01-23T11:19:23.995Z,12.27
2023-01-23T11:21:54.498Z,12.05
2023-01-23T11:24:39.839Z,12.57
2023-01-23T11:27:20.364Z,13.05
2023-01-23T11:30:04.474Z,13.93
2023-01-23T11:32:36.841Z,14.68
2023-01-23T11:35:14.349Z,15.82
2023-01-23T11:37:42.513Z,15.02
2023-01-23T11:40:15.039Z,13.48
2023-01-23T11:42:44.476Z,14.95
2023-01-23T11:45:31.525Z,12.98
2023-01-23T11:48:15.479Z,12.50
2023-01-23T11:50:55.374Z,20.48
2023-01-23T11:53:41.983Z,15.65
2023-01-23T11:56:36.948Z,17.05
2023-01-23T11:59:25.404Z,13.77
2023-01-23T12:02:21.020Z,15.18
2023-01-23T12:05:05.916Z,14.30
2023-01-23T12:07:42.821Z,15.25
2023-01-23T12:10:24.493Z,16.30
2023-01-23T12:13:13.275Z,13.32
2023-01-23T12:15:47.994Z,16.77
2023-01-23T12:18:38.453Z,14.07
2023-01-23T12:21:18.987Z,15.23
2023-01-23T12:24:10.388Z,13.02
2023-01-23T12:26:49.294Z,14.25
2023-01-23T12:32:43.513Z,12.88
2023-01-23T12:35:31.184Z,13.27
2023-01-23T12:38:14.373Z,15.27
2023-01-23T12:40:49.730Z,13.70
2023-01-23T12:43:23.014Z,14.75
2023-01-23T12:45:59.574Z,15.00
2023-01-23T12:48:33.508Z,14.15
2023-01-23T12:51:09.799Z,16.52
2023-01-23T12:53:40.913Z,12.25
2023-01-23T12:56:12.246Z,13.48
2023-01-23T12:58:43.755Z,15.13
2023-01-23T13:01:24.802Z,13.85
2023-01-23T13:04:05.359Z,13.85
2023-01-23T13:06:58.234Z,13.00
2023-01-23T13:09:36.228Z,13.48
2023-01-23T13:12:22.470Z,13.15
2023-01-23T13:15:14.354Z,15.50
2023-01-23T13:17:47.568Z,14.45
2023-01-23T13:20:44.685Z,12.52
2023-01-23T13:23:26.779Z,15.98
2023-01-23T13:26:26.689Z,13.68
2023-01-23T13:28:55.667Z,17.20
2023-01-23T13:31:35.612Z,13.88
2023-01-23T13:34:15.947Z,14.95
2023-01-23T13:36:45.154Z,12.95
2023-01-23T13:39:27.701Z,12.70
2023-01-23T13:42:32.303Z,13.95
2023-01-23T13:45:27.063Z,13.52
2023-01-23T14:21:41.075Z,12.25
2023-01-23T14:24:23.185Z,11.95
2023-01-23T14:26:53.167Z,11.77
2023-01-23T14:29:23.262Z,12.77
2023-01-23T14:31:53.562Z,12.48
2023-01-23T14:34:23.406Z,11.60
2023-01-23T14:37:05.030Z,11.50
2023-01-23T14:39:35.950Z,12.27
2023-01-23T14:42:06.529Z,11.80
2023-01-23T14:44:42.957Z,12.10
2023-01-23T14:47:17.455Z,11.23
2023-01-23T14:49:48.173Z,12.52
2023-01-23T14:52:23.763Z,12.68
2023-01-23T14:54:54.466Z,14.75
2023-01-23T14:57:25.153Z,12.23
2023-01-23T14:59:56.702Z,14.85
2023-01-23T15:02:36.761Z,13.43
2023-01-23T15:05:09.498Z,13.50
2023-01-23T15:07:44.670Z,13.90
2023-01-23T15:10:18.202Z,12.10
2023-01-23T15:12:52.910Z,13.10
2023-01-23T15:15:22.993Z,13.65
2023-01-23T15:17:54.185Z,15.43
2023-01-23T15:20:31.141Z,21.35
2023-01-23T15:23:14.300Z,13.80
2023-01-23T15:25:42.697Z,16.42
2023-01-23T15:28:31.286Z,15.75
2023-01-23T15:30:59.468Z,14.82
2023-01-23T15:33:31.475Z,14.50
2023-01-23T15:36:05.212Z,16.35
2023-01-23T15:38:33.589Z,14.90
2023-01-23T15:41:01.956Z,15.18
2023-01-23T15:43:29.965Z,17.95
2023-01-23T15:45:57.971Z,15.93
2023-01-23T15:48:25.962Z,13.02
2023-01-23T15:50:56.563Z,15.68
2023-01-23T15:53:25.646Z,15.55
2023-01-23T15:55:55.350Z,15.25
2023-01-23T15:58:23.459Z,17.50
2023-01-23T16:00:51.391Z,15.65
2023-01-23T16:03:19.910Z,15.05
2023-01-23T16:05:48.055Z,15.80
2023-01-23T16:08:22.708Z,15.35
2023-01-23T16:10:51.334Z,15.45
2023-01-23T16:13:19.635Z,14.25
2023-01-23T16:15:48.623Z,13.20
2023-01-23T16:18:17.265Z,14.02
2023-01-23T16:20:47.104Z,14.93
2023-01-23T16:23:19.781Z,14.82
2023-01-23T16:25:49.554Z,15.25
2023-01-23T16:28:20.695Z,14.45
2023-01-23T16:30:50.783Z,16.02
2023-01-23T16:33:19.084Z,14.50
2023-01-23T16:35:48.525Z,15.40
2023-01-23T16:38:22.496Z,16.85
2023-01-23T16:40:53.588Z,17.45
2023-01-23T16:43:22.932Z,16.52
2023-01-23T16:45:53.193Z,14.18
2023-01-23T16:48:28.541Z,14.80
2023-01-23T16:51:02.101Z,15.63
2023-01-23T16:53:33.755Z,15.65
2023-01-23T16:56:03.544Z,15.05
2023-01-23T16:58:35.954Z,15.70
2023-01-23T17:01:09.538Z,14.85
2023-01-23T17:03:40.811Z,17.15
2023-01-23T17:06:14.290Z,15.43
2023-01-23T17:08:44.209Z,17.73
2023-01-23T17:11:21.064Z,15.85
2023-01-23T17:13:50.663Z,14.35
2023-01-23T17:16:26.989Z,14.85
2023-01-23T17:18:58.240Z,14.95
2023-01-23T17:21:29.925Z,17.45
2023-01-23T17:23:59.403Z,16.13
2023-01-23T17:26:27.641Z,16.00
2023-01-23T17:28:55.849Z,15.60
2023-01-23T17:31:26.795Z,19.63
2023-01-23T17:33:55.821Z,16.33
2023-01-23T17:36:25.225Z,17.35
2023-01-23T17:38:56.885Z,18.10
2023-01-23T17:41:26.690Z,19.55
2023-01-23T17:43:55.018Z,16.02
2023-01-23T17:46:26.390Z,13.32
2023-01-23T17:48:56.030Z,14.30
2023-01-23T17:51:29.085Z,15.77
2023-01-23T17:54:06.111Z,14.52
2023-01-23T17:56:44.350Z,15.77
2023-01-23T17:59:19.627Z,16.50
2023-01-23T18:02:35.183Z,13.38
2023-01-23T18:05:10.680Z,15.48
2023-01-23T18:07:53.376Z,13.48
2023-01-23T18:10:30.340Z,13.77
2023-01-23T18:13:10.129Z,13.23
2023-01-23T18:15:43.765Z,13.38
2023-01-23T18:18:24.001Z,16.15
2023-01-23T18:20:54.820Z,13.40
2023-01-23T18:23:24.260Z,12.98
2023-01-23T18:26:02.314Z,14.55
2023-01-23T18:28:41.639Z,15.45
2023-01-23T18:31:17.342Z,12.18
2023-01-23T18:33:57.886Z,15.43
2023-01-23T18:36:36.699Z,18.23
2023-01-23T18:39:34.083Z,16.08
2023-01-23T18:42:25.500Z,13.27
2023-01-23T18:44:59.325Z,14.13
2023-01-23T18:47:27.790Z,14.20
2023-01-23T18:49:56.629Z,11.85
2023-01-23T18:52:35.369Z,14.20
2023-01-23T18:55:12.131Z,13.75
2023-01-23T18:57:55.446Z,12.60
2023-01-23T19:00:30.548Z,13.18
2023-01-23T19:03:06.964Z,14.15
2023-01-23T19:05:35.876Z,14.55
2023-01-23T19:08:04.902Z,12.50
2023-01-23T19:10:47.983Z,13.13
2023-01-23T19:13:52.956Z,13.00
2023-01-23T19:16:31.077Z,13.60
2023-01-23T19:19:15.370Z,12.57
2023-01-23T19:21:47.299Z,13.40
2023-01-23T19:24:19.108Z,12.95
2023-01-23T19:26:48.105Z,12.45
2023-01-23T19:29:22.295Z,12.95
2023-01-23T19:32:04.657Z,12.68
2023-01-23T19:34:35.261Z,20.75
2023-01-23T19:37:04.160Z,16.58
2023-01-23T19:39:32.735Z,12.82
2023-01-23T19:42:01.255Z,12.20
2023-01-23T19:44:30.306Z,14.35
2023-01-23T19:47:00.121Z,12.90
2023-01-23T19:49:28.406Z,11.63
2023-01-23T19:51:56.689Z,13.02
2023-01-23T19:54:24.882Z,11.40
2023-01-23T19:56:53.532Z,12.25
2023-01-23T19:59:22.011Z,11.27
2023-01-23T20:01:53.472Z,12.10
2023-01-23T20:04:24.618Z,11.82
2023-01-23T20:07:04.695Z,12.02
2023-01-23T20:09:32.827Z,11.95
2023-01-23T20:12:01.195Z,12.30
2023-01-23T20:14:29.979Z,13.98
2023-01-23T20:16:58.614Z,12.40
2023-01-23T20:19:28.151Z,12.55
2023-01-23T20:21:56.436Z,13.20
2023-01-23T20:24:24.854Z,14.65
2023-01-23T20:26:53.104Z,14.45
2023-01-23T20:29:21.295Z,12.10
2023-01-23T20:31:49.969Z,16.00
2023-01-23T20:34:18.339Z,13.55
2023-01-23T20:36:47.898Z,13.45
2023-01-23T20:39:16.021Z,13.68
2023-01-23T20:41:44.257Z,12.60
2023-01-23T20:44:12.713Z,14.32
2023-01-23T20:46:41.534Z,14.35
2023-01-23T20:49:14.142Z,12.95
2023-01-23T20:51:42.644Z,15.23
2023-01-23T20:54:12.401Z,15.13
2023-01-23T20:56:40.540Z,14.80
2023-01-23T20:59:19.108Z,13.20
2023-01-23T21:02:05.677Z,13.85
2023-01-23T21:04:36.188Z,12.70
2023-01-23T21:07:05.882Z,14.60
2023-01-23T21:09:35.673Z,13.25
2023-01-23T21:12:04.451Z,14.20
2023-01-23T21:14:32.746Z,14.88
2023-01-23T21:17:00.856Z,12.52
2023-01-23T21:19:29.555Z,14.75
2023-01-23T21:21:58.056Z,14.00
2023-01-23T21:24:27.152Z,14.25
2023-01-23T21:26:56.900Z,13.45
2023-01-23T21:29:25.088Z,15.45
2023-01-23T21:31:53.246Z,15.15
2023-01-23T21:34:21.449Z,14.15
2023-01-23T21:36:49.596Z,14.90
2023-01-23T21:39:18.223Z,14.13
2023-01-23T21:41:46.378Z,13.50
2023-01-23T21:44:15.971Z,12.90
2023-01-23T21:46:44.187Z,13.25
2023-01-23T21:49:12.455Z,13.38
2023-01-23T21:51:40.865Z,14.27
2023-01-23T21:54:10.471Z,15.13
2023-01-23T21:56:38.932Z,14.30
2023-01-23T21:59:07.094Z,15.05
2023-01-23T22:01:36.498Z,15.02
2023-01-23T22:04:06.981Z,15.45
2023-01-23T22:06:37.146Z,14.95
2023-01-23T22:09:06.083Z,15.70
2023-01-23T22:11:34.710Z,15.65
2023-01-23T22:14:03.819Z,16.65
2023-01-23T22:16:47.561Z,15.48
2023-01-23T22:19:22.082Z,16.00
2023-01-23T22:21:51.705Z,14.07
2023-01-23T22:24:37.502Z,15.73
2023-01-23T22:27:05.791Z,13.30
2023-01-23T22:29:33.945Z,13.60
2023-01-23T22:32:02.326Z,15.90
2023-01-23T22:34:31.922Z,14.00
2023-01-23T22:37:00.361Z,13.65
2023-01-23T22:39:28.679Z,15.55
2023-01-23T22:41:57.896Z,15.23
2023-01-23T22:44:26.316Z,13.95
2023-01-23T22:46:54.720Z,15.57
2023-01-23T22:49:22.988Z,14.60
2023-01-23T22:53:14.799Z,14.82
2023-01-23T22:55:43.053Z,14.70
2023-01-23T22:58:11.545Z,12.68
2023-01-23T23:00:39.789Z,17.73
2023-01-23T23:03:08.111Z,14.20
2023-01-23T23:05:36.584Z,14.27
2023-01-23T23:08:05.195Z,15.23
2023-01-23T23:10:58.681Z,14.80
2023-01-23T23:13:27.450Z,15.00
2023-01-23T23:16:22.051Z,17.70
2023-01-23T23:18:52.997Z,15.60
2023-01-23T23:21:23.491Z,15.30
2023-01-23T23:23:52.376Z,14.73
2023-01-23T23:26:32.349Z,15.18
2023-01-23T23:29:00.832Z,17.83
2023-01-23T23:31:29.681Z,15.77
2023-01-23T23:33:58.072Z,15.15
2023-01-23T23:36:27.074Z,17.00
2023-01-23T23:38:55.490Z,14.68
2023-01-23T23:41:23.687Z,15.90
2023-01-23T23:43:53.280Z,16.05
2023-01-23T23:46:21.694Z,16.05
2023-01-23T23:48:49.857Z,16.23
